»·PEaware :: N118LW L71-KLHM

N118LW :: L71-KLHM

FLIGHT INFORMATION

Flight Status: Arrived
Operator: Privately registered:
United States
More flights under this callsign
Pilot: Lee W. (44)
Aircraft: Unknown
(FA7X)
More flights by this aircraft type
Origin: L71 California City Mun
United States
Destination: KLHM Lincoln Regl/Harder
United States
More flights between these airports :: More routes between these airports
Route: WRING TTE EXTRA ALTTA SIBOC FRA COGOL BAGBY HOFED HABXU LIN GALTS SAC
File this flight plan on PilotEdge
Remarks:
Altitude:
(Current/Filed)
30,000ft
Speed:
(Current/Filed)
500kts
Departed: 20-Jun-15 05:46 AM
Arrived: 20-Jun-15 06:39 AM
Distance/Time
Traveled:
272nm/0:53
Distance/Time
To Go:
Arrived

Flight Plot

Page will automatically refresh every two minutes.


Map Options




Map Legend


Flown Route
Filed Route
Departure Airport
Arrival Airport
Navaid (VOR, NDB)
Fix

Horizontal Profiles

Position Reports

Time Latitude Longitude Heading Altitude Ground
Speed
20-Jun-15 05:42 35.150140 -118.014777 359 2458ft 0kts
20-Jun-15 05:43 35.150256 -118.014780 356 2458ft 0kts
20-Jun-15 05:44 35.152406 -118.007816 75 2458ft 22kts
20-Jun-15 05:45 35.152917 -118.008896 260 2458ft 58kts
20-Jun-15 05:46 35.159510 -118.061014 312 4412ft 248kts
20-Jun-15 05:47 35.202524 -118.139693 299 7438ft 298kts
20-Jun-15 05:48 35.241311 -118.228845 297 10381ft 314kts
20-Jun-15 05:49 35.279550 -118.318831 297 13202ft 326kts
20-Jun-15 05:50 35.320667 -118.416018 296 16120ft 337kts
20-Jun-15 05:51 35.356111 -118.500051 295 18574ft 344kts
20-Jun-15 05:52 35.407339 -118.621927 295 20154ft 351kts
20-Jun-15 05:53 35.440852 -118.701248 295 20039ft 351kts
20-Jun-15 05:54 35.485140 -118.806884 294 19981ft 352kts
20-Jun-15 05:55 35.554779 -118.886750 335 21628ft 372kts
20-Jun-15 05:56 35.652641 -118.925492 339 23802ft 383kts
20-Jun-15 05:57 35.754804 -118.962864 339 25985ft 396kts
20-Jun-15 05:58 35.860910 -119.001662 338 28182ft 409kts
20-Jun-15 05:59 35.968659 -119.047304 334 29942ft 464kts
20-Jun-15 06:00 36.091482 -119.105683 334 29949ft 484kts
20-Jun-15 06:01 36.148586 -119.132927 334 29948ft 484kts
20-Jun-15 06:02 36.262653 -119.187472 334 29918ft 483kts
20-Jun-15 06:03 36.385114 -119.246297 333 29917ft 482kts
20-Jun-15 06:04 36.507766 -119.305326 333 29917ft 483kts
20-Jun-15 06:05 36.630154 -119.364498 333 29917ft 483kts
20-Jun-15 06:06 36.726609 -119.411256 333 29927ft 483kts
20-Jun-15 06:07 36.820293 -119.456809 333 29926ft 482kts
20-Jun-15 06:08 36.917274 -119.504077 333 29926ft 482kts
20-Jun-15 06:09 37.010750 -119.549748 333 29926ft 482kts
20-Jun-15 06:10 37.117279 -119.612903 317 29963ft 469kts
20-Jun-15 06:11 37.164762 -119.661724 314 29926ft 466kts
20-Jun-15 06:12 37.247561 -119.750996 313 29942ft 465kts
20-Jun-15 06:13 37.340092 -119.852205 313 29941ft 464kts
20-Jun-15 06:14 37.434312 -119.955553 313 29940ft 464kts
20-Jun-15 06:15 37.529299 -120.060091 313 29919ft 464kts
20-Jun-15 06:16 37.621276 -120.167842 302 29939ft 455kts
20-Jun-15 06:17 37.686882 -120.284842 299 29980ft 454kts
20-Jun-15 06:18 37.751109 -120.402839 299 29987ft 454kts
20-Jun-15 06:19 37.819159 -120.528591 299 26837ft 446kts
20-Jun-15 06:20 37.884846 -120.650391 299 22170ft 453kts
20-Jun-15 06:21 37.937761 -120.747963 300 20001ft 439kts
20-Jun-15 06:22 38.005285 -120.873833 299 19974ft 442kts
20-Jun-15 06:23 38.073836 -121.001045 303 19742ft 445kts
20-Jun-15 06:24 38.147499 -121.111318 306 17923ft 437kts
20-Jun-15 06:25 38.223027 -121.223065 307 16064ft 426kts
20-Jun-15 06:26 38.296164 -121.331740 306 14257ft 414kts
20-Jun-15 06:27 38.365798 -121.435488 307 12124ft 383kts
20-Jun-15 06:28 38.430363 -121.524122 332 9918ft 330kts
20-Jun-15 06:29 38.513527 -121.520091 12 8075ft 301kts
20-Jun-15 06:30 38.588360 -121.490874 15 6202ft 283kts
20-Jun-15 06:31 38.652947 -121.463845 16 4502ft 271kts
20-Jun-15 06:32 38.712865 -121.438483 16 3981ft 215kts
20-Jun-15 06:33 38.762200 -121.417662 16 3977ft 185kts
20-Jun-15 06:34 38.804008 -121.385332 53 3358ft 183kts
20-Jun-15 06:35 38.833894 -121.340571 24 2893ft 149kts
20-Jun-15 06:36 38.868465 -121.342328 347 1070ft 153kts
20-Jun-15 06:37 38.904504 -121.354279 345 125ft 91kts
20-Jun-15 06:38 38.910101 -121.354192 166 125ft 12kts
20-Jun-15 06:39 38.905584 -121.352733 165 125ft 15kts
20-Jun-15 06:40 38.905483 -121.352698 164 125ft 0kts
20-Jun-15 06:41 38.905177 -121.352590 164 125ft 5kts
20-Jun-15 06:42 38.902212 -121.351648 166 125ft 16kts
20-Jun-15 06:43 38.900480 -121.352199 258 125ft 0kts
20-Jun-15 06:44 38.908825 -121.355681 345 126ft 151kts
20-Jun-15 06:45 38.936042 -121.407808 236 2321ft 245kts
20-Jun-15 06:46 38.875418 -121.445814 204 3484ft 252kts
20-Jun-15 06:47 38.810080 -121.468513 184 3481ft 258kts
20-Jun-15 06:48 38.741159 -121.470729 184 2257ft 247kts
20-Jun-15 06:49 38.679463 -121.475435 183 1493ft 204kts
20-Jun-15 06:50 38.651948 -121.523564 244 1543ft 172kts
20-Jun-15 06:51 38.643654 -121.575723 302 1674ft 163kts
20-Jun-15 06:52 38.688776 -121.580304 1 36ft 128kts

Navigation Log

Ident Type
1. L71 Airport
2. WRING Fix
3. TTE Navaid
4. EXTRA Fix
5. ALTTA Fix
6. SIBOC Fix
7. FRA Navaid
8. COGOL Fix
9. BAGBY Fix
10. HOFED Fix
11. HABXU Fix
12. LIN Navaid
13. GALTS Fix
14. SAC Navaid
15. KLHM Airport